Smyrna Airport
KMQY : now visible

Airfield :











YOU CAN JOIN US ON...

 
LOGIN :

Register | Disclaimer

   EN    FR    IT 

 









Legend :    VFR   Marginal VFR   IFR   Intensive IFR   Very Intensive IFR
Visi :
Ceiling :
>= 8 km
>= 3000ft
5 to 8 km
1000 to 3000 ft
1500m to 5 km
500 to 1000 ft
800 to 1500m
200 to 500 ft
< 800m
< 200 ft
Symbols :   Thunderstorms  Fog  Heavy snow  Heavy precipitations  Wind > 20 kt






- Airport Elevation : 543 ft


KMQY - Smyrna

CURRENT METAR :
  • 030756Z AUTO 16003KT 10SM CLR 23/22 A3001 RMK AO2 SLP164 T02280222

EXPIRED METARs :
  • 030656Z AUTO 12003KT 10SM CLR 24/23 A3001 RMK AO2 SLP163 T02390228
  • 030556Z AUTO 00000KT 9SM CLR 24/23 A3002 RMK AO2 SLP168 60058 T02390233 10300 20239 403560222 58002

TAF KMQY
Valid from the 03 at 06:00 until the 04 at 06:00 UTC


030520Z 0306/0406 VRB03KT 4SM BR SCT050 SCT100
FM031300 36004KT P6SM SCT050 SCT100
FM031600 VRB05KT P6SM VCTS BKN050CB
PROB30 0318/0324 2SM TSRA BKN040CB
KZME FIR / North America



MET'MAP, your aeronautical weather chart ! - Copyright ORBIFLY December 2007 - Disclaimer

ORBIFLY MET'MAP TEAM :

Programming & Development : Alexandra Zaïnal
Original concept : Baudouin d'Aumeries
Technical & hardware support : Manuel Goepfert
Assistance : Marc-Olivier Méhu




SOURCES & CREDITS :

   NOAA       Earth
Advisory